Time;durP1;ratioP1;P1;durP2;ratioP2;P2;SDS_P1;SDS_P2;PMS_P1;PMS_P2;Temp;Humidity;BMP_temperature;BMP_pressure;BME280_temperature;BME280_humidity;BME280_pressure;Samples;Min_cycle;Max_cycle;Signal;HPM_P1;HPM_P2
2021/11/04 00:01:47;;;;;;;25.80;17.27;;;8.10;99.90;;;;;;5021929;28;20287;-72
2021/11/04 00:04:14;;;;;;;24.30;15.93;;;8.10;99.90;;;;;;5013148;28;20200;-72
2021/11/04 00:06:41;;;;;;;23.23;15.57;;;8.10;99.90;;;;;;5027388;28;20196;-73
2021/11/04 00:09:08;;;;;;;24.90;15.60;;;8.00;99.90;;;;;;5011967;28;20204;-72
2021/11/04 00:11:36;;;;;;;25.27;15.97;;;8.10;99.90;;;;;;5030272;28;20196;-72
2021/11/04 00:14:03;;;;;;;24.10;15.67;;;8.00;99.90;;;;;;5030715;28;20573;-72
2021/11/04 00:16:30;;;;;;;26.23;15.83;;;8.00;99.90;;;;;;5030762;28;20207;-72
2021/11/04 00:18:57;;;;;;;24.23;15.13;;;8.00;99.90;;;;;;5029802;28;20665;-72
2021/11/04 00:21:24;;;;;;;25.77;17.03;;;8.00;99.90;;;;;;5030849;28;20215;-72
2021/11/04 00:23:51;;;;;;;26.43;16.10;;;8.10;99.90;;;;;;5025589;28;20203;-71
2021/11/04 00:26:18;;;;;;;25.37;15.13;;;8.00;99.90;;;;;;5009988;28;20196;-72
2021/11/04 00:28:46;;;;;;;26.20;16.00;;;8.00;99.90;;;;;;5016581;28;20545;-72
2021/11/04 00:31:13;;;;;;;26.97;16.23;;;8.00;99.90;;;;;;5026481;28;20195;-71
2021/11/04 00:33:41;;;;;;;27.23;17.87;;;8.00;99.90;;;;;;5030194;28;20220;-71
2021/11/04 00:36:08;;;;;;;25.80;16.47;;;8.00;99.90;;;;;;5030347;28;20210;-71
2021/11/04 00:38:35;;;;;;;25.27;15.90;;;8.00;99.90;;;;;;5020889;28;20208;-72
2021/11/04 00:41:02;;;;;;;30.17;16.60;;;8.00;99.90;;;;;;5031134;28;20215;-71
2021/11/04 00:43:29;;;;;;;29.43;17.97;;;8.00;99.90;;;;;;5019680;28;20574;-71
2021/11/04 00:45:57;;;;;;;26.63;17.80;;;8.00;99.90;;;;;;5030756;28;20669;-71
2021/11/04 00:48:24;;;;;;;27.67;17.50;;;8.00;99.90;;;;;;5019190;28;20227;-71
2021/11/04 00:50:51;;;;;;;27.53;16.77;;;8.00;99.90;;;;;;5029459;28;20206;-71
2021/11/04 00:53:18;;;;;;;28.30;17.27;;;8.00;99.90;;;;;;5030232;28;20776;-71
2021/11/04 00:55:45;;;;;;;28.40;16.90;;;7.90;99.90;;;;;;5030422;28;20206;-72
2021/11/04 00:58:11;;;;;;;29.77;18.37;;;7.90;99.90;;;;;;5029982;28;20199;-72
2021/11/04 01:00:38;;;;;;;30.37;18.73;;;7.90;99.90;;;;;;5028624;28;20243;-71
2021/11/04 01:03:06;;;;;;;29.17;17.63;;;7.90;99.90;;;;;;5028592;28;20192;-71
2021/11/04 01:05:34;;;;;;;29.53;18.67;;;7.90;99.90;;;;;;5030261;28;20653;-71
2021/11/04 01:08:00;;;;;;;28.77;17.00;;;7.90;99.90;;;;;;5026640;28;20199;-72
2021/11/04 01:10:28;;;;;;;27.37;18.23;;;7.90;99.90;;;;;;5029489;28;20196;-71
2021/11/04 01:12:54;;;;;;;28.10;16.97;;;7.90;99.90;;;;;;5025356;28;20219;-71
2021/11/04 01:15:22;;;;;;;28.13;17.47;;;7.90;99.90;;;;;;5018830;28;20211;-71
2021/11/04 01:17:50;;;;;;;27.53;17.47;;;7.90;99.90;;;;;;5020331;28;20208;-71
2021/11/04 01:20:19;;;;;;;26.93;17.03;;;7.90;99.90;;;;;;5026643;28;20211;-71
2021/11/04 01:22:46;;;;;;;27.70;17.10;;;7.90;99.90;;;;;;5029987;28;20204;-71
2021/11/04 01:25:13;;;;;;;25.90;16.40;;;7.90;99.90;;;;;;5021249;28;20223;-71
2021/11/04 01:27:40;;;;;;;24.17;15.70;;;7.90;99.90;;;;;;5015511;28;20490;-72
2021/11/04 01:30:09;;;;;;;26.90;16.43;;;7.80;99.90;;;;;;5010935;28;20214;-71
2021/11/04 01:32:37;;;;;;;28.07;17.00;;;7.80;99.90;;;;;;5015444;28;20246;-71
2021/11/04 01:35:05;;;;;;;28.43;17.37;;;7.90;99.90;;;;;;5011811;28;20597;-72
2021/11/04 01:37:34;;;;;;;27.93;16.73;;;7.90;99.90;;;;;;5015369;28;20215;-71
2021/11/04 01:40:00;;;;;;;28.47;17.27;;;7.80;99.90;;;;;;5010217;28;20216;-71
2021/11/04 01:42:27;;;;;;;28.43;17.47;;;7.80;99.90;;;;;;5010447;28;20200;-71
2021/11/04 01:44:54;;;;;;;27.37;16.73;;;7.80;99.90;;;;;;5025838;28;20207;-71
2021/11/04 01:47:21;;;;;;;30.40;17.90;;;7.80;99.90;;;;;;5019745;28;20207;-71
2021/11/04 01:49:48;;;;;;;28.27;16.47;;;7.80;99.90;;;;;;5029987;28;20885;-71
2021/11/04 01:52:15;;;;;;;29.07;17.57;;;7.80;99.90;;;;;;5029419;28;20215;-71
2021/11/04 01:54:43;;;;;;;29.73;18.10;;;7.80;99.90;;;;;;5022449;28;20590;-71
2021/11/04 01:57:10;;;;;;;29.77;18.70;;;7.80;99.90;;;;;;5010372;28;20197;-71
2021/11/04 01:59:37;;;;;;;30.60;18.37;;;7.80;99.90;;;;;;5010886;28;20197;-71
2021/11/04 02:02:10;;;;;;;30.20;18.10;;;7.80;99.90;;;;;;5021405;28;20208;-71
2021/11/04 02:04:45;;;;;;;30.37;18.10;;;7.80;99.90;;;;;;5010054;28;20207;-71
2021/11/04 02:07:20;;;;;;;35.70;17.87;;;7.80;99.90;;;;;;5017131;28;20210;-71
2021/11/04 02:09:58;;;;;;;29.67;18.70;;;7.80;99.90;;;;;;5019407;28;20200;-71
2021/11/04 02:12:33;;;;;;;31.50;17.43;;;7.80;99.90;;;;;;5014843;28;20298;-71
2021/11/04 02:15:01;;;;;;;27.97;17.70;;;7.80;99.90;;;;;;5029904;28;20332;-71
2021/11/04 02:17:29;;;;;;;28.00;17.37;;;7.80;99.90;;;;;;5017499;28;20207;-71
2021/11/04 02:19:58;;;;;;;29.30;18.23;;;7.80;99.90;;;;;;5029819;28;20669;-71
2021/11/04 02:22:42;;;;;;;31.43;18.83;;;7.70;99.90;;;;;;5016752;28;20200;-71
2021/11/04 02:25:14;;;;;;;27.73;17.30;;;7.70;99.90;;;;;;5009945;28;20206;-71
2021/11/04 02:27:43;;;;;;;27.63;18.00;;;7.70;99.90;;;;;;5012111;28;20227;-71
2021/11/04 02:30:11;;;;;;;31.40;18.57;;;7.70;99.90;;;;;;5009719;28;20200;-71
2021/11/04 02:32:38;;;;;;;29.60;17.80;;;7.70;99.90;;;;;;5011414;28;20207;-71
2021/11/04 02:35:07;;;;;;;27.50;17.33;;;7.70;99.90;;;;;;5028981;28;20233;-71
2021/11/04 02:37:35;;;;;;;27.90;16.83;;;7.70;99.90;;;;;;5016791;28;20192;-71
2021/11/04 02:40:02;;;;;;;27.50;17.23;;;7.70;99.90;;;;;;5027978;28;20223;-71
2021/11/04 02:42:31;;;;;;;27.20;18.37;;;7.70;99.90;;;;;;5028324;28;20204;-71
2021/11/04 02:44:58;;;;;;;25.67;16.50;;;7.70;99.90;;;;;;5028713;28;20191;-71
2021/11/04 02:47:25;;;;;;;25.47;15.77;;;7.70;99.90;;;;;;5028060;28;20570;-75
2021/11/04 02:49:53;;;;;;;26.33;16.90;;;7.70;99.90;;;;;;5027706;28;20218;-71
2021/11/04 02:52:20;;;;;;;28.73;16.23;;;7.70;99.90;;;;;;5024410;28;20215;-71
2021/11/04 02:54:53;;;;;;;25.00;16.23;;;7.70;99.90;;;;;;5021005;28;20257;-71
2021/11/04 02:57:21;;;;;;;26.77;16.97;;;7.70;99.90;;;;;;5027822;28;20218;-71
2021/11/04 02:59:50;;;;;;;26.03;16.30;;;7.70;99.90;;;;;;5027167;28;20196;-71
2021/11/04 03:02:17;;;;;;;26.10;17.07;;;7.70;99.90;;;;;;5027912;28;20646;-71
2021/11/04 03:04:44;;;;;;;28.03;17.67;;;7.70;99.90;;;;;;5028470;28;20568;-71
2021/11/04 03:07:11;;;;;;;28.20;17.60;;;7.70;99.90;;;;;;5018931;28;20199;-71
2021/11/04 03:09:39;;;;;;;27.80;16.97;;;7.70;99.90;;;;;;5029018;28;20298;-71
2021/11/04 03:12:07;;;;;;;25.43;16.23;;;7.70;99.90;;;;;;5023056;28;20666;-71
2021/11/04 03:14:34;;;;;;;28.00;17.30;;;7.70;99.90;;;;;;5009124;28;20227;-71
2021/11/04 03:17:06;;;;;;;25.60;16.40;;;7.70;99.90;;;;;;5020503;28;20306;-71
2021/11/04 03:19:33;;;;;;;25.47;16.93;;;7.70;99.90;;;;;;5017142;28;20672;-71
2021/11/04 03:22:02;;;;;;;28.07;17.57;;;7.70;99.90;;;;;;5129477;27;20201;-71
2021/11/04 03:24:29;;;;;;;27.60;18.37;;;7.70;99.90;;;;;;5016748;28;20197;-71
2021/11/04 03:27:00;;;;;;;26.30;16.83;;;7.80;99.90;;;;;;5025730;28;20204;-71
2021/11/04 03:29:31;;;;;;;30.20;18.40;;;7.80;99.90;;;;;;5028413;28;20207;-71
2021/11/04 03:31:58;;;;;;;28.17;17.70;;;7.80;99.90;;;;;;5026932;28;20253;-71
2021/11/04 03:34:27;;;;;;;26.70;16.57;;;7.80;99.90;;;;;;5015036;28;20220;-71
2021/11/04 03:36:55;;;;;;;29.77;17.93;;;7.80;99.90;;;;;;5022259;28;20271;-71
2021/11/04 03:39:23;;;;;;;27.93;17.40;;;7.80;99.90;;;;;;5027761;28;20200;-71
2021/11/04 03:41:52;;;;;;;27.03;18.00;;;7.80;99.90;;;;;;5027642;28;20681;-71
2021/11/04 03:44:20;;;;;;;26.83;17.47;;;7.80;99.90;;;;;;5028067;28;20196;-71
2021/11/04 03:46:48;;;;;;;28.43;17.53;;;7.80;99.90;;;;;;5026011;28;20218;-71
2021/11/04 03:49:18;;;;;;;25.40;15.70;;;7.80;99.90;;;;;;5027400;28;20208;-71
2021/11/04 03:51:49;;;;;;;28.53;18.47;;;7.80;99.90;;;;;;5028388;28;20598;-71
2021/11/04 03:54:18;;;;;;;26.97;16.87;;;7.80;99.90;;;;;;5028500;28;20220;-71
2021/11/04 03:56:45;;;;;;;27.60;17.20;;;7.80;99.90;;;;;;5018230;28;20551;-71
2021/11/04 03:59:12;;;;;;;26.93;17.03;;;7.80;99.90;;;;;;5018943;28;20204;-71
2021/11/04 04:01:39;;;;;;;26.87;16.77;;;7.80;99.90;;;;;;5013759;28;20231;-71
2021/11/04 04:04:08;;;;;;;27.37;17.37;;;7.80;99.90;;;;;;5024183;28;20230;-71
2021/11/04 04:06:35;;;;;;;26.30;17.00;;;7.80;99.90;;;;;;5028511;28;20581;-71
2021/11/04 04:09:04;;;;;;;27.97;17.53;;;7.80;99.90;;;;;;5025412;28;20659;-71
2021/11/04 04:11:31;;;;;;;25.77;16.23;;;7.80;99.90;;;;;;5018842;28;20202;-71
2021/11/04 04:13:58;;;;;;;28.27;17.33;;;7.80;99.90;;;;;;5031758;28;20227;-71
2021/11/04 04:16:25;;;;;;;27.20;17.07;;;7.80;99.90;;;;;;5030694;28;20208;-71
2021/11/04 04:18:53;;;;;;;28.03;16.63;;;7.80;99.90;;;;;;5031652;28;20203;-71
2021/11/04 04:21:20;;;;;;;26.37;16.47;;;7.80;99.90;;;;;;5031194;28;20688;-72
2021/11/04 04:23:47;;;;;;;26.43;16.27;;;7.80;99.90;;;;;;5028942;28;20208;-71
2021/11/04 04:26:16;;;;;;;27.23;17.37;;;7.90;99.90;;;;;;5026557;28;20560;-71
2021/11/04 04:28:42;;;;;;;25.50;16.10;;;7.90;99.90;;;;;;5030965;28;20210;-71
2021/11/04 04:31:09;;;;;;;24.83;15.80;;;7.90;99.90;;;;;;5030703;28;20212;-71
2021/11/04 04:33:36;;;;;;;25.60;16.37;;;7.90;99.90;;;;;;5030988;28;20207;-71
2021/11/04 04:36:03;;;;;;;24.47;16.17;;;7.90;99.90;;;;;;5028537;28;20591;-71
2021/11/04 04:38:30;;;;;;;24.30;15.13;;;7.90;99.90;;;;;;5030579;28;20808;-71
2021/11/04 04:40:57;;;;;;;24.40;16.53;;;7.90;99.90;;;;;;5028979;28;20219;-71
2021/11/04 04:43:25;;;;;;;23.40;14.67;;;7.90;99.90;;;;;;5029015;28;20218;-71
2021/11/04 04:45:52;;;;;;;25.70;15.93;;;7.90;99.90;;;;;;5029222;28;20200;-71
2021/11/04 04:48:19;;;;;;;23.97;14.70;;;7.90;99.90;;;;;;5029192;28;20254;-71
2021/11/04 04:50:46;;;;;;;25.13;16.60;;;7.90;99.90;;;;;;5059381;27;20555;-71
2021/11/04 04:53:13;;;;;;;22.13;14.13;;;7.90;99.90;;;;;;5029634;28;20206;-71
2021/11/04 04:55:40;;;;;;;24.93;15.73;;;7.90;99.90;;;;;;5030353;28;20681;-71
2021/11/04 04:58:07;;;;;;;23.30;15.23;;;7.90;99.90;;;;;;5030618;28;20571;-71
2021/11/04 05:00:36;;;;;;;24.27;14.87;;;7.90;99.90;;;;;;5030415;28;20207;-71
2021/11/04 05:03:03;;;;;;;24.13;15.33;;;7.90;99.90;;;;;;5029879;28;20207;-71
2021/11/04 05:05:31;;;;;;;28.27;16.57;;;7.90;99.90;;;;;;5030697;28;20208;-71
2021/11/04 05:07:57;;;;;;;24.93;16.47;;;7.90;99.90;;;;;;5030350;28;20215;-71
2021/11/04 05:10:24;;;;;;;26.07;16.43;;;7.90;99.90;;;;;;5029953;28;20203;-71
2021/11/04 05:12:51;;;;;;;25.27;15.43;;;7.90;99.90;;;;;;5029837;28;20566;-71
2021/11/04 05:15:18;;;;;;;23.27;15.03;;;7.90;99.90;;;;;;5030391;28;20230;-71
2021/11/04 05:17:46;;;;;;;26.90;16.97;;;7.90;99.90;;;;;;5029737;28;20238;-71
2021/11/04 05:20:13;;;;;;;25.70;17.03;;;7.90;99.90;;;;;;5030350;28;20537;-71
2021/11/04 05:22:40;;;;;;;22.93;14.90;;;7.90;99.90;;;;;;5030523;28;20212;-71
2021/11/04 05:25:08;;;;;;;25.47;15.60;;;7.90;99.90;;;;;;5029797;28;20202;-71
2021/11/04 05:27:35;;;;;;;25.23;15.97;;;7.90;99.90;;;;;;5029545;28;20287;-71
2021/11/04 05:30:01;;;;;;;26.20;15.27;;;7.90;99.90;;;;;;5030551;28;20665;-71
2021/11/04 05:32:28;;;;;;;24.53;16.00;;;7.90;99.90;;;;;;5029910;28;20218;-71
2021/11/04 05:34:56;;;;;;;24.20;15.03;;;7.90;99.90;;;;;;5030162;28;20224;-71
2021/11/04 05:37:23;;;;;;;23.83;15.73;;;7.90;99.90;;;;;;5029146;28;20203;-71
2021/11/04 05:39:50;;;;;;;22.60;13.93;;;7.90;99.90;;;;;;5030164;28;20685;-71
2021/11/04 05:42:17;;;;;;;24.90;15.00;;;8.00;99.90;;;;;;5028795;28;20214;-71
2021/11/04 05:44:44;;;;;;;24.00;14.83;;;8.00;99.90;;;;;;5030326;28;20200;-71
2021/11/04 05:47:11;;;;;;;24.00;15.30;;;8.00;99.90;;;;;;5029044;28;20276;-71
2021/11/04 05:49:37;;;;;;;25.43;15.23;;;7.90;99.90;;;;;;5029452;28;20204;-71
2021/11/04 05:52:06;;;;;;;22.73;14.17;;;7.90;99.90;;;;;;5029944;28;20657;-71
2021/11/04 05:54:33;;;;;;;28.60;15.90;;;7.90;99.90;;;;;;5030270;28;20222;-71
2021/11/04 05:57:00;;;;;;;25.87;14.93;;;7.90;99.90;;;;;;5028677;28;20703;-71
2021/11/04 05:59:27;;;;;;;24.13;15.40;;;7.90;99.90;;;;;;5030244;28;20316;-71
2021/11/04 06:01:54;;;;;;;24.83;15.63;;;8.00;99.90;;;;;;5030194;28;20219;-71
2021/11/04 06:04:21;;;;;;;25.37;14.83;;;7.90;99.90;;;;;;5029310;28;20649;-71
2021/11/04 06:06:48;;;;;;;25.97;16.17;;;7.90;99.90;;;;;;5029438;28;20214;-71
2021/11/04 06:09:17;;;;;;;27.13;15.57;;;7.90;99.90;;;;;;5030061;28;20208;-71
2021/11/04 06:11:44;;;;;;;25.37;15.27;;;7.90;99.90;;;;;;5028894;28;20200;-73
2021/11/04 06:14:11;;;;;;;25.53;15.63;;;7.90;99.90;;;;;;5029901;28;20200;-73
2021/11/04 06:16:37;;;;;;;27.03;15.80;;;7.90;99.90;;;;;;5029094;28;20314;-73
2021/11/04 06:19:04;;;;;;;26.67;16.10;;;7.90;99.90;;;;;;5028149;28;20833;-73
2021/11/04 06:21:31;;;;;;;27.10;15.40;;;7.90;99.90;;;;;;5029514;28;20211;-73
2021/11/04 06:23:58;;;;;;;26.03;15.47;;;7.90;99.90;;;;;;5028930;28;20738;-73
2021/11/04 06:26:26;;;;;;;26.87;15.57;;;7.90;99.90;;;;;;5027572;28;20206;-73
2021/11/04 06:28:53;;;;;;;27.83;16.00;;;7.90;99.90;;;;;;5029829;28;20570;-74
2021/11/04 06:31:20;;;;;;;28.00;15.90;;;7.90;99.90;;;;;;5028969;28;20211;-74
2021/11/04 06:33:46;;;;;;;29.53;17.10;;;7.90;99.90;;;;;;5029554;28;20571;-73
2021/11/04 06:36:13;;;;;;;31.27;16.10;;;7.90;99.90;;;;;;5028473;28;20227;-73
2021/11/04 06:38:40;;;;;;;33.87;16.57;;;8.00;99.90;;;;;;5029053;28;20226;-73
2021/11/04 06:41:07;;;;;;;27.90;15.70;;;8.00;99.90;;;;;;5028925;28;20204;-73
2021/11/04 06:43:35;;;;;;;29.30;16.00;;;7.90;99.90;;;;;;5029667;28;20214;-73
2021/11/04 06:46:04;;;;;;;25.67;15.07;;;7.90;99.90;;;;;;5027567;28;20232;-73
2021/11/04 06:48:40;;;;;;;31.30;16.83;;;7.90;99.90;;;;;;5028849;28;20203;-73
2021/11/04 06:51:08;;;;;;;27.23;16.20;;;7.90;99.90;;;;;;5029023;28;20203;-73
2021/11/04 06:53:42;;;;;;;28.20;16.17;;;7.90;99.90;;;;;;5029356;28;20213;-74
2021/11/04 06:56:10;;;;;;;26.73;15.73;;;7.90;99.90;;;;;;5027820;28;20695;-74
2021/11/04 06:58:39;;;;;;;27.23;15.43;;;7.90;99.90;;;;;;5029439;28;20211;-73
2021/11/04 07:01:09;;;;;;;27.93;15.37;;;7.90;99.90;;;;;;5028661;28;20230;-73
2021/11/04 07:03:43;;;;;;;26.83;15.60;;;8.00;99.90;;;;;;5028784;28;20207;-73
2021/11/04 07:06:11;;;;;;;26.93;14.57;;;7.90;99.90;;;;;;5027979;28;20215;-73
2021/11/04 07:08:43;;;;;;;25.90;14.53;;;7.90;99.90;;;;;;5029097;28;20575;-73
2021/11/04 07:11:11;;;;;;;23.93;14.60;;;8.00;99.90;;;;;;5029085;28;20347;-73
2021/11/04 07:13:40;;;;;;;23.07;14.50;;;8.00;99.90;;;;;;5029304;28;20209;-73
2021/11/04 07:16:07;;;;;;;23.33;13.47;;;8.00;99.90;;;;;;5027677;28;20228;-74
2021/11/04 07:18:34;;;;;;;23.30;13.70;;;8.00;99.90;;;;;;5029353;28;20196;-73
2021/11/04 07:21:05;;;;;;;21.50;13.07;;;8.00;99.90;;;;;;5028998;28;20216;-74
2021/11/04 07:23:39;;;;;;;23.77;12.73;;;8.00;99.90;;;;;;5028413;28;20195;-73
2021/11/04 07:26:07;;;;;;;23.03;13.60;;;8.00;99.90;;;;;;5027459;28;20661;-74
2021/11/04 07:28:38;;;;;;;22.77;12.80;;;8.00;99.90;;;;;;5028876;28;20208;-73
2021/11/04 07:31:09;;;;;;;21.97;12.30;;;8.00;99.90;;;;;;5028378;28;20617;-73
2021/11/04 07:33:36;;;;;;;21.57;12.50;;;8.00;99.90;;;;;;5028626;28;20204;-73
2021/11/04 07:36:04;;;;;;;22.57;12.00;;;8.00;99.90;;;;;;5030285;28;20232;-73
2021/11/04 07:38:34;;;;;;;22.50;12.50;;;8.10;99.90;;;;;;5031942;28;20426;-73
2021/11/04 07:41:01;;;;;;;21.03;12.17;;;8.10;99.90;;;;;;5031280;28;20222;-73
2021/11/04 07:43:30;;;;;;;20.67;12.13;;;8.10;99.90;;;;;;5031322;28;20689;-73
2021/11/04 07:45:58;;;;;;;20.33;11.47;;;8.10;99.90;;;;;;5031983;28;20200;-74
2021/11/04 07:48:28;;;;;;;18.63;10.67;;;8.10;99.90;;;;;;5031564;28;20200;-73
2021/11/04 07:50:54;;;;;;;20.20;11.93;;;8.10;99.90;;;;;;5032006;28;20207;-73
2021/11/04 07:53:21;;;;;;;20.63;11.70;;;8.10;99.90;;;;;;5031741;28;20214;-74
2021/11/04 07:55:48;;;;;;;20.33;12.23;;;8.10;99.90;;;;;;5031535;28;20246;-73
2021/11/04 07:58:15;;;;;;;21.87;12.77;;;8.10;99.90;;;;;;5031808;28;20207;-73
2021/11/04 08:00:43;;;;;;;21.20;13.20;;;8.10;99.90;;;;;;5031293;28;20207;-73
2021/11/04 08:03:10;;;;;;;21.57;13.37;;;8.10;99.90;;;;;;5031785;28;20249;-73
2021/11/04 08:05:38;;;;;;;21.17;11.77;;;8.10;99.90;;;;;;5031824;28;20204;-74
2021/11/04 08:08:06;;;;;;;20.70;12.63;;;8.10;99.90;;;;;;5030907;28;20204;-73
2021/11/04 08:10:33;;;;;;;22.43;14.43;;;8.20;99.90;;;;;;5030890;28;20211;-74
2021/11/04 08:13:06;;;;;;;26.40;13.43;;;8.20;99.90;;;;;;5031045;28;20212;-73
2021/11/04 08:15:33;;;;;;;29.20;15.70;;;8.10;99.90;;;;;;5030558;28;20318;-74
2021/11/04 08:18:01;;;;;;;29.47;14.70;;;8.20;99.90;;;;;;5030861;28;20657;-73
2021/11/04 08:20:29;;;;;;;26.80;15.10;;;8.10;99.90;;;;;;5031543;28;20208;-74
2021/11/04 08:22:57;;;;;;;33.87;16.67;;;8.10;99.90;;;;;;5031470;28;20204;-74
2021/11/04 08:25:24;;;;;;;33.70;17.97;;;8.20;99.90;;;;;;5030758;28;20225;-73
2021/11/04 08:27:51;;;;;;;35.60;17.47;;;8.20;99.90;;;;;;5031223;28;20230;-73
2021/11/04 08:30:18;;;;;;;34.73;17.53;;;8.20;99.90;;;;;;5031731;28;20661;-74
2021/11/04 08:32:45;;;;;;;32.30;15.67;;;8.20;99.90;;;;;;5030676;28;20312;-73
2021/11/04 08:35:12;;;;;;;28.60;15.60;;;8.20;99.90;;;;;;5031465;28;20665;-74
2021/11/04 08:37:39;;;;;;;27.30;14.17;;;8.10;99.90;;;;;;5030023;28;20208;-74
2021/11/04 08:40:09;;;;;;;25.67;14.60;;;8.10;99.90;;;;;;5031544;28;20223;-73
2021/11/04 08:42:36;;;;;;;25.20;14.10;;;8.20;99.90;;;;;;5030677;28;20227;-73
2021/11/04 08:45:04;;;;;;;21.73;13.17;;;8.20;99.90;;;;;;5031094;28;20207;-73
2021/11/04 08:47:31;;;;;;;20.40;11.97;;;8.20;99.90;;;;;;5028772;28;20211;-73
2021/11/04 08:50:00;;;;;;;22.53;14.03;;;8.20;99.90;;;;;;5030793;28;20256;-74
2021/11/04 08:52:27;;;;;;;20.33;13.43;;;8.20;99.90;;;;;;5030732;28;20200;-74
2021/11/04 08:54:55;;;;;;;21.77;13.37;;;8.20;99.90;;;;;;5031186;28;20199;-74
2021/11/04 08:57:23;;;;;;;20.23;13.37;;;8.20;99.90;;;;;;5030143;28;20284;-73
2021/11/04 08:59:50;;;;;;;19.53;12.10;;;8.20;99.90;;;;;;5030802;28;20550;-73
2021/11/04 09:02:20;;;;;;;22.00;13.30;;;8.20;99.90;;;;;;5030953;28;20312;-73
2021/11/04 09:04:48;;;;;;;21.33;13.40;;;8.20;99.90;;;;;;5030090;28;20208;-74
2021/11/04 09:07:15;;;;;;;20.13;11.57;;;8.30;99.90;;;;;;5030384;28;20200;-74
2021/11/04 09:09:43;;;;;;;19.27;11.63;;;8.30;99.90;;;;;;5029467;28;20212;-74
2021/11/04 09:12:10;;;;;;;18.23;11.67;;;8.30;99.90;;;;;;5029275;28;20204;-73
2021/11/04 09:14:38;;;;;;;17.43;10.97;;;8.20;99.90;;;;;;5030893;28;20214;-74
2021/11/04 09:17:06;;;;;;;18.27;11.50;;;8.20;99.90;;;;;;5029252;28;20231;-73
2021/11/04 09:19:33;;;;;;;19.40;12.23;;;8.20;99.90;;;;;;5031112;28;20680;-74
2021/11/04 09:22:00;;;;;;;16.30;10.87;;;8.20;99.90;;;;;;5030526;28;20204;-73
2021/11/04 09:24:27;;;;;;;19.93;12.03;;;8.30;99.90;;;;;;5030438;28;20537;-73
2021/11/04 09:26:55;;;;;;;20.23;12.53;;;8.20;99.90;;;;;;5029455;28;20204;-74
2021/11/04 09:29:22;;;;;;;18.80;12.13;;;8.30;99.90;;;;;;5030603;28;20576;-73
2021/11/04 09:31:51;;;;;;;18.50;11.40;;;8.30;99.90;;;;;;5029550;28;20220;-74
2021/11/04 09:34:21;;;;;;;18.57;10.50;;;8.30;99.90;;;;;;5030400;28;20200;-74
2021/11/04 09:36:47;;;;;;;20.57;10.97;;;8.30;99.90;;;;;;5029161;28;20227;-70
2021/11/04 09:39:14;;;;;;;18.07;11.23;;;8.30;99.90;;;;;;5030603;28;20657;-73
2021/11/04 09:41:42;;;;;;;18.03;11.40;;;8.30;99.90;;;;;;5029306;28;20212;-74
2021/11/04 09:44:10;;;;;;;18.77;11.53;;;8.30;99.90;;;;;;5030335;28;20211;-74
2021/11/04 09:46:39;;;;;;;17.50;11.60;;;8.30;99.90;;;;;;5029396;28;20200;-74
2021/11/04 09:49:08;;;;;;;19.10;10.80;;;8.30;99.90;;;;;;5030221;28;20682;-74
2021/11/04 09:51:35;;;;;;;19.77;11.17;;;8.30;99.90;;;;;;5030117;28;20227;-75
2021/11/04 09:54:02;;;;;;;19.03;11.27;;;8.30;99.90;;;;;;5030436;28;20238;-74
2021/11/04 09:56:29;;;;;;;20.80;12.50;;;8.30;99.90;;;;;;5028492;28;20276;-74
2021/11/04 09:58:56;;;;;;;18.73;11.07;;;8.30;99.90;;;;;;5009064;28;20208;-74
2021/11/04 10:01:25;;;;;;;17.20;11.20;;;8.30;99.90;;;;;;5019826;28;20407;-74
2021/11/04 10:03:52;;;;;;;19.13;12.60;;;8.30;99.90;;;;;;5028550;28;20559;-74
2021/11/04 10:06:23;;;;;;;19.50;12.27;;;8.40;99.90;;;;;;5028408;28;20564;-74
2021/11/04 10:08:51;;;;;;;22.00;13.00;;;8.40;99.90;;;;;;5029404;28;20301;-74
2021/11/04 10:11:19;;;;;;;21.07;12.87;;;8.40;99.90;;;;;;5029086;28;20310;-74
2021/11/04 10:13:47;;;;;;;19.70;13.40;;;8.40;99.90;;;;;;5029592;28;20203;-74
2021/11/04 10:16:16;;;;;;;20.63;14.37;;;8.40;99.90;;;;;;5028969;28;20231;-74
2021/11/04 10:18:45;;;;;;;21.00;13.63;;;8.40;99.90;;;;;;5028805;28;20211;-74
2021/11/04 10:21:13;;;;;;;19.17;12.60;;;8.40;99.90;;;;;;5029919;28;20230;-74
2021/11/04 10:23:43;;;;;;;18.67;12.27;;;8.40;99.90;;;;;;5029854;28;20204;-74
2021/11/04 10:26:13;;;;;;;18.33;12.77;;;8.40;99.90;;;;;;5028126;28;20292;-74
2021/11/04 10:28:42;;;;;;;18.87;11.90;;;8.40;99.90;;;;;;5029583;28;20212;-74
2021/11/04 10:31:11;;;;;;;17.23;11.87;;;8.40;99.90;;;;;;5029261;28;20206;-74
2021/11/04 10:33:40;;;;;;;19.03;11.73;;;8.40;99.90;;;;;;5029429;28;20214;-74
2021/11/04 10:36:10;;;;;;;15.70;10.10;;;8.40;99.90;;;;;;5028477;28;20219;-74
2021/11/04 10:38:38;;;;;;;16.77;10.37;;;8.40;99.90;;;;;;5029779;28;20208;-75
2021/11/04 10:41:09;;;;;;;16.70;10.83;;;8.40;99.90;;;;;;5029140;28;20647;-75
2021/11/04 10:43:36;;;;;;;15.53;10.73;;;8.40;99.90;;;;;;5029340;28;20207;-75
2021/11/04 10:46:10;;;;;;;17.17;11.17;;;8.30;99.90;;;;;;5029307;28;20226;-75
2021/11/04 10:48:39;;;;;;;14.80;9.50;;;8.30;99.90;;;;;;5028487;28;20219;-74
2021/11/04 10:51:06;;;;;;;18.13;11.33;;;8.40;99.90;;;;;;5028085;28;20196;-74
2021/11/04 10:53:33;;;;;;;17.40;10.83;;;8.40;99.90;;;;;;5028249;28;20200;-74
2021/11/04 10:56:19;;;;;;;17.60;10.57;;;8.40;99.90;;;;;;5027893;28;20203;-74
2021/11/04 10:58:59;;;;;;;14.87;9.87;;;8.40;99.90;;;;;;5028809;28;20559;-74
2021/11/04 11:01:32;;;;;;;16.77;10.83;;;8.30;99.90;;;;;;5029152;28;20753;-73
2021/11/04 11:04:03;;;;;;;13.70;8.77;;;8.40;99.90;;;;;;5028723;28;20208;-74
2021/11/04 11:06:34;;;;;;;15.83;10.30;;;8.30;99.90;;;;;;5028191;28;20624;-74
2021/11/04 11:09:05;;;;;;;15.20;9.60;;;8.40;99.90;;;;;;5025632;28;20207;-74
2021/11/04 11:11:34;;;;;;;15.83;9.77;;;8.40;99.90;;;;;;5031434;28;20192;-74
2021/11/04 11:14:01;;;;;;;15.70;9.60;;;8.40;99.90;;;;;;5029880;28;20211;-73
2021/11/04 11:16:28;;;;;;;14.33;9.57;;;8.40;99.90;;;;;;5031183;28;20227;-74
2021/11/04 11:19:00;;;;;;;16.97;11.80;;;8.40;99.90;;;;;;5032252;28;20327;-73
2021/11/04 11:21:30;;;;;;;16.67;10.83;;;8.40;99.90;;;;;;5032332;28;20200;-74
2021/11/04 11:23:58;;;;;;;14.00;8.90;;;8.40;99.90;;;;;;5029027;28;20203;-74
2021/11/04 11:26:26;;;;;;;13.90;9.47;;;8.40;99.90;;;;;;5030655;28;20204;-74
2021/11/04 11:28:56;;;;;;;16.10;9.53;;;8.40;99.90;;;;;;5031282;28;20641;-73
2021/11/04 11:31:26;;;;;;;14.83;9.60;;;8.40;99.90;;;;;;5032021;28;20650;-74
2021/11/04 11:34:21;;;;;;;14.63;9.90;;;8.40;99.90;;;;;;5032784;28;20199;-74
2021/11/04 11:37:11;;;;;;;15.37;9.63;;;8.40;99.90;;;;;;5030888;28;20319;-74
2021/11/04 11:39:40;;;;;;;14.17;8.80;;;8.30;99.90;;;;;;5032573;28;20247;-73
2021/11/04 11:42:09;;;;;;;13.43;8.87;;;8.30;99.90;;;;;;5030490;28;20227;-74
2021/11/04 11:44:53;;;;;;;13.73;8.43;;;8.30;99.90;;;;;;5032009;28;20571;-73
2021/11/04 11:47:22;;;;;;;14.10;8.90;;;8.30;99.90;;;;;;5031392;28;20665;-74
2021/11/04 11:50:10;;;;;;;14.73;9.57;;;8.30;99.90;;;;;;5032049;28;20247;-73
2021/11/04 11:52:50;;;;;;;14.03;8.67;;;8.30;99.90;;;;;;5027953;28;20199;-73
2021/11/04 11:55:19;;;;;;;15.33;9.50;;;8.30;99.90;;;;;;5031172;28;20680;-73
2021/11/04 11:58:24;;;;;;;15.60;9.13;;;8.40;99.90;;;;;;5030772;28;20212;-73
2021/11/04 12:00:57;;;;;;;15.47;10.10;;;8.30;99.90;;;;;;5031851;28;20710;-74
2021/11/04 12:03:46;;;;;;;13.80;9.00;;;8.40;99.90;;;;;;5031766;28;20294;-73
2021/11/04 12:06:41;;;;;;;16.80;10.50;;;8.40;99.90;;;;;;5115075;28;20215;-74
2021/11/04 12:09:07;;;;;;;18.27;10.57;;;8.40;99.90;;;;;;5115059;28;20232;-74
2021/11/04 12:11:48;;;;;;;16.53;9.83;;;8.30;99.90;;;;;;5112423;28;20598;-73
2021/11/04 12:14:36;;;;;;;15.83;9.87;;;8.30;99.90;;;;;;5031694;28;20257;-74
2021/11/04 12:17:15;;;;;;;16.33;10.53;;;8.40;99.90;;;;;;5030440;28;20237;-74
2021/11/04 12:19:48;;;;;;;14.93;9.10;;;8.30;99.90;;;;;;5028314;27;20191;-74
2021/11/04 12:22:26;;;;;;;15.30;9.93;;;8.30;99.90;;;;;;5027678;28;20556;-73
2021/11/04 12:24:54;;;;;;;16.57;10.10;;;8.30;99.90;;;;;;5031112;28;20213;-73
2021/11/04 12:27:22;;;;;;;12.03;8.33;;;8.30;99.90;;;;;;5030010;28;20204;-73
2021/11/04 12:29:50;;;;;;;14.97;9.80;;;8.30;99.90;;;;;;5031770;28;20577;-74
2021/11/04 12:32:21;;;;;;;13.73;8.77;;;8.30;99.90;;;;;;5028002;28;20208;-74
2021/11/04 12:34:54;;;;;;;13.83;9.03;;;8.30;99.90;;;;;;5017478;28;20587;-73
2021/11/04 12:37:22;;;;;;;14.23;8.83;;;8.30;99.90;;;;;;5017091;28;20223;-73
2021/11/04 12:39:49;;;;;;;13.43;8.83;;;8.30;99.90;;;;;;5026624;28;20203;-72
2021/11/04 12:42:18;;;;;;;12.30;8.93;;;8.30;99.90;;;;;;5084469;27;20960;-73
2021/11/04 12:44:47;;;;;;;15.83;10.83;;;8.30;99.90;;;;;;5020380;28;20538;-73
2021/11/04 12:47:19;;;;;;;14.10;9.47;;;8.30;99.90;;;;;;5023388;28;20205;-73